Time;durP1;ratioP1;P1;durP2;ratioP2;P2;SDS_P1;SDS_P2;PMS_P1;PMS_P2;Temp;Humidity;BMP_temperature;BMP_pressure;BME280_temperature;BME280_humidity;BME280_pressure;Samples;Min_cycle;Max_cycle;Signal;HPM_P1;HPM_P2
2024/01/07 00:02:13;;;;;;;6.65;3.90;;;;;;;;;;5091365;28;20033;-57
2024/01/07 00:04:40;;;;;;;6.95;4.10;;;;;;;;;;5109886;28;20031;-58
2024/01/07 00:07:06;;;;;;;7.60;4.60;;;;;;;;;;5109626;28;20110;-59
2024/01/07 00:09:32;;;;;;;6.80;4.00;;;;;;;;;;5109706;28;20141;-59
2024/01/07 00:11:58;;;;;;;7.10;4.20;;;;;;;;;;5109329;28;20050;-58
2024/01/07 00:14:24;;;;;;;7.10;4.20;;;;;;;;;;5109669;28;20383;-59
2024/01/07 00:16:50;;;;;;;7.30;4.35;;;;;;;;;;5109068;28;20023;-55
2024/01/07 00:19:16;;;;;;;7.50;4.70;;;;;;;;;;5109654;28;20019;-57
2024/01/07 00:21:42;;;;;;;7.00;4.20;;;;;;;;;;5109366;28;20151;-59
2024/01/07 00:24:08;;;;;;;6.93;4.10;;;;;;;;;;5109696;28;20088;-59
2024/01/07 00:26:34;;;;;;;7.90;4.70;;;;;;;;;;5106425;28;20028;-56
2024/01/07 00:29:00;;;;;;;6.82;4.07;;;;;;;;;;5088902;28;20576;-56
2024/01/07 00:31:26;;;;;;;6.70;3.97;;;;;;;;;;5089045;28;20024;-55
2024/01/07 00:33:52;;;;;;;8.88;5.28;;;;;;;;;;5089131;28;20098;-57
2024/01/07 00:36:18;;;;;;;6.70;4.00;;;;;;;;;;5088876;28;20427;-59
2024/01/07 00:38:44;;;;;;;6.70;4.00;;;;;;;;;;5099783;28;20173;-56
2024/01/07 00:41:10;;;;;;;6.70;4.00;;;;;;;;;;5108891;28;20126;-58
2024/01/07 00:43:36;;;;;;;7.20;4.20;;;;;;;;;;5109209;28;20516;-58
2024/01/07 00:46:02;;;;;;;7.07;4.20;;;;;;;;;;5109059;28;20035;-58
2024/01/07 00:48:28;;;;;;;6.80;3.97;;;;;;;;;;5108983;28;20434;-58
2024/01/07 00:50:55;;;;;;;7.65;4.93;;;;;;;;;;5115149;22;20134;-46
2024/01/07 00:53:21;;;;;;;6.35;3.80;;;;;;;;;;5090676;28;20474;-49
2024/01/07 00:55:47;;;;;;;6.93;4.05;;;;;;;;;;5089813;28;20103;-48
2024/01/07 00:58:13;;;;;;;7.03;3.90;;;;;;;;;;5071826;28;20123;-51
2024/01/07 01:00:39;;;;;;;12.15;6.05;;;;;;;;;;5089695;28;20267;-48
2024/01/07 01:03:05;;;;;;;6.45;3.75;;;;;;;;;;5071129;28;20028;-48
2024/01/07 01:05:31;;;;;;;5.90;3.50;;;;;;;;;;5089771;28;20023;-46
2024/01/07 01:07:57;;;;;;;5.70;3.40;;;;;;;;;;5071741;28;20028;-47
2024/01/07 01:10:23;;;;;;;6.72;4.03;;;;;;;;;;5090474;28;20024;-47
2024/01/07 01:12:49;;;;;;;6.00;3.50;;;;;;;;;;5072418;28;20016;-49
2024/01/07 01:15:16;;;;;;;6.13;3.60;;;;;;;;;;5090377;28;20547;-52
2024/01/07 01:17:42;;;;;;;6.00;3.58;;;;;;;;;;5090401;28;20035;-49
2024/01/07 01:20:09;;;;;;;6.10;3.60;;;;;;;;;;5090342;28;20016;-52
2024/01/07 01:22:35;;;;;;;10.77;6.22;;;;;;;;;;5090077;28;20020;-51
2024/01/07 01:25:01;;;;;;;6.20;3.65;;;;;;;;;;5090201;28;20043;-51
2024/01/07 01:27:27;;;;;;;6.15;3.60;;;;;;;;;;5090086;28;20072;-52
2024/01/07 01:29:53;;;;;;;6.28;3.70;;;;;;;;;;5072174;28;20035;-46
2024/01/07 01:32:19;;;;;;;6.40;3.72;;;;;;;;;;5090137;28;20375;-49
2024/01/07 01:34:45;;;;;;;7.00;4.10;;;;;;;;;;5072535;28;20092;-48
2024/01/07 01:37:11;;;;;;;6.75;4.00;;;;;;;;;;5090488;28;20027;-46
2024/01/07 01:39:40;;;;;;;7.10;4.20;;;;;;;;;;5093591;28;20021;-48
2024/01/07 01:42:07;;;;;;;6.80;4.00;;;;;;;;;;5094208;28;20038;-47
2024/01/07 01:44:33;;;;;;;6.60;3.90;;;;;;;;;;5076169;28;20028;-51
2024/01/07 01:47:00;;;;;;;6.68;3.97;;;;;;;;;;5076199;28;20119;-48
2024/01/07 01:49:26;;;;;;;7.70;4.85;;;;;;;;;;5094388;28;20449;-51
2024/01/07 01:51:52;;;;;;;6.38;3.78;;;;;;;;;;5075396;28;20107;-48
2024/01/07 01:54:19;;;;;;;6.85;4.10;;;;;;;;;;5094011;28;20127;-48
2024/01/07 01:56:45;;;;;;;6.70;4.00;;;;;;;;;;5094127;28;20024;-47
2024/01/07 01:59:12;;;;;;;7.20;4.20;;;;;;;;;;5093977;28;20474;-51
2024/01/07 02:01:38;;;;;;;6.88;4.07;;;;;;;;;;5093745;28;20482;-49
2024/01/07 02:04:04;;;;;;;6.32;3.78;;;;;;;;;;5093874;28;20023;-50
2024/01/07 02:06:30;;;;;;;7.00;4.28;;;;;;;;;;5094056;28;20499;-49
2024/01/07 02:08:57;;;;;;;7.28;4.38;;;;;;;;;;5093811;28;20599;-47
2024/01/07 02:11:23;;;;;;;6.40;3.80;;;;;;;;;;5093332;28;20153;-50
2024/01/07 02:13:49;;;;;;;6.50;3.90;;;;;;;;;;5093610;28;20024;-51
2024/01/07 02:16:15;;;;;;;6.22;3.70;;;;;;;;;;5075455;28;20028;-51
2024/01/07 02:18:43;;;;;;;6.40;3.80;;;;;;;;;;5093613;28;20024;-49
2024/01/07 02:21:10;;;;;;;6.70;4.00;;;;;;;;;;5093426;28;20024;-46
2024/01/07 02:23:36;;;;;;;6.60;3.90;;;;;;;;;;5093580;28;20052;-46
2024/01/07 02:26:02;;;;;;;6.53;3.90;;;;;;;;;;5093684;28;20806;-45
2024/01/07 02:28:28;;;;;;;6.13;3.63;;;;;;;;;;5093511;28;20060;-46
2024/01/07 02:30:54;;;;;;;6.47;3.80;;;;;;;;;;5093172;28;20054;-47
2024/01/07 02:33:20;;;;;;;8.00;4.38;;;;;;;;;;5093432;28;20095;-46
2024/01/07 02:35:46;;;;;;;10.13;5.07;;;;;;;;;;5075498;28;20077;-48
2024/01/07 02:38:12;;;;;;;6.55;3.90;;;;;;;;;;5093478;28;20027;-48
2024/01/07 02:40:38;;;;;;;6.60;3.90;;;;;;;;;;5093376;28;20031;-48
2024/01/07 02:43:04;;;;;;;6.07;3.63;;;;;;;;;;5093235;28;20537;-49
2024/01/07 02:45:30;;;;;;;6.80;4.10;;;;;;;;;;5086835;28;20111;-51
2024/01/07 02:47:56;;;;;;;6.60;3.90;;;;;;;;;;5084488;28;20044;-50
2024/01/07 02:50:22;;;;;;;6.70;4.00;;;;;;;;;;5071072;28;20502;-48
2024/01/07 02:52:48;;;;;;;7.40;4.25;;;;;;;;;;5072339;28;20085;-47
2024/01/07 02:55:14;;;;;;;8.65;7.10;;;;;;;;;;5072546;28;20016;-46
2024/01/07 02:57:40;;;;;;;6.53;3.90;;;;;;;;;;5072439;28;20021;-48
2024/01/07 03:00:06;;;;;;;6.55;3.92;;;;;;;;;;5072089;28;20052;-51
2024/01/07 03:02:32;;;;;;;6.38;3.78;;;;;;;;;;5071990;28;20666;-46
2024/01/07 03:04:58;;;;;;;7.97;5.93;;;;;;;;;;5072073;28;20135;-48
2024/01/07 03:07:24;;;;;;;10.40;6.05;;;;;;;;;;5072145;28;20035;-46
2024/01/07 03:09:50;;;;;;;12.43;11.35;;;;;;;;;;5070811;28;20029;-50
2024/01/07 03:12:17;;;;;;;6.85;4.10;;;;;;;;;;5071669;28;20429;-49
2024/01/07 03:14:43;;;;;;;9.75;4.88;;;;;;;;;;5072119;28;20082;-50
2024/01/07 03:17:10;;;;;;;7.10;4.18;;;;;;;;;;5072094;28;20024;-47
2024/01/07 03:19:36;;;;;;;6.50;3.90;;;;;;;;;;5070708;28;20024;-50
2024/01/07 03:22:02;;;;;;;9.40;5.47;;;;;;;;;;5071596;28;20031;-46
2024/01/07 03:24:27;;;;;;;11.75;7.18;;;;;;;;;;5072027;28;20029;-47
2024/01/07 03:26:53;;;;;;;6.88;4.10;;;;;;;;;;5071851;28;20028;-48
2024/01/07 03:29:19;;;;;;;7.00;4.10;;;;;;;;;;5071520;28;20030;-46
2024/01/07 03:31:45;;;;;;;6.65;3.95;;;;;;;;;;5071150;28;20028;-45
2024/01/07 03:34:12;;;;;;;6.60;3.90;;;;;;;;;;5071256;28;20158;-45
2024/01/07 03:36:37;;;;;;;6.90;4.13;;;;;;;;;;5071579;28;20031;-45
2024/01/07 03:39:03;;;;;;;8.55;4.45;;;;;;;;;;5071425;28;20339;-47
2024/01/07 03:41:29;;;;;;;6.65;3.97;;;;;;;;;;5071108;28;20028;-48
2024/01/07 03:43:56;;;;;;;8.38;5.57;;;;;;;;;;5071205;28;20021;-49
2024/01/07 03:46:22;;;;;;;7.53;4.32;;;;;;;;;;5070134;28;20130;-45
2024/01/07 03:48:48;;;;;;;10.48;5.20;;;;;;;;;;5070106;28;20044;-44
2024/01/07 03:51:14;;;;;;;7.47;4.20;;;;;;;;;;5065133;28;20507;-47
2024/01/07 03:53:40;;;;;;;7.63;4.45;;;;;;;;;;5084303;28;20032;-49
2024/01/07 03:56:06;;;;;;;7.18;4.20;;;;;;;;;;5091757;28;20419;-44
2024/01/07 03:58:32;;;;;;;6.80;4.03;;;;;;;;;;5073646;28;20499;-47
2024/01/07 04:00:58;;;;;;;8.38;5.75;;;;;;;;;;5091834;28;20024;-45
2024/01/07 04:03:24;;;;;;;7.03;4.20;;;;;;;;;;5092165;28;20031;-46
2024/01/07 04:05:50;;;;;;;7.88;4.55;;;;;;;;;;5092229;28;20027;-45
2024/01/07 04:08:16;;;;;;;7.53;4.97;;;;;;;;;;5091883;28;20481;-45
2024/01/07 04:10:42;;;;;;;6.70;4.00;;;;;;;;;;5093059;28;20056;-45
2024/01/07 04:13:08;;;;;;;10.93;5.28;;;;;;;;;;5073735;28;20507;-45
2024/01/07 04:15:34;;;;;;;12.05;5.65;;;;;;;;;;5091753;28;20032;-45
2024/01/07 04:18:04;;;;;;;6.95;4.10;;;;;;;;;;5091944;28;20024;-45
2024/01/07 04:20:30;;;;;;;6.65;3.95;;;;;;;;;;5091950;28;20031;-46
2024/01/07 04:22:57;;;;;;;7.28;4.20;;;;;;;;;;5091471;28;20085;-45
2024/01/07 04:25:23;;;;;;;9.35;4.10;;;;;;;;;;5091381;28;20082;-49
2024/01/07 04:27:49;;;;;;;9.90;5.43;;;;;;;;;;5091054;28;20036;-48
2024/01/07 04:30:15;;;;;;;6.90;4.10;;;;;;;;;;5091017;28;20062;-47
2024/01/07 04:32:41;;;;;;;6.90;4.07;;;;;;;;;;5072691;28;20020;-47
2024/01/07 04:35:08;;;;;;;7.80;4.30;;;;;;;;;;5072625;28;20024;-44
2024/01/07 04:37:34;;;;;;;6.70;4.00;;;;;;;;;;5091082;28;20048;-48
2024/01/07 04:40:00;;;;;;;9.93;4.55;;;;;;;;;;5090803;28;20032;-46
2024/01/07 04:42:26;;;;;;;8.18;4.45;;;;;;;;;;5090671;28;20024;-51
2024/01/07 04:44:52;;;;;;;6.93;4.20;;;;;;;;;;5091054;28;20038;-50
2024/01/07 04:47:31;;;;;;;6.82;4.07;;;;;;;;;;5090883;28;20116;-49
2024/01/07 04:49:57;;;;;;;7.25;4.18;;;;;;;;;;5090666;28;20132;-49
2024/01/07 04:52:23;;;;;;;7.85;4.63;;;;;;;;;;5090291;28;20025;-47
2024/01/07 04:54:52;;;;;;;6.78;4.00;;;;;;;;;;5090786;28;20095;-50
2024/01/07 04:57:18;;;;;;;6.53;3.90;;;;;;;;;;5090871;28;20016;-52
2024/01/07 04:59:44;;;;;;;6.72;4.00;;;;;;;;;;5090819;28;20080;-46
2024/01/07 05:02:11;;;;;;;6.82;4.00;;;;;;;;;;5072789;28;20093;-47
2024/01/07 05:04:37;;;;;;;7.00;4.25;;;;;;;;;;5090906;28;20657;-44
2024/01/07 05:07:03;;;;;;;8.20;4.80;;;;;;;;;;5091114;28;20119;-53
2024/01/07 05:09:29;;;;;;;7.38;4.40;;;;;;;;;;5090943;28;20020;-52
2024/01/07 05:11:55;;;;;;;8.23;4.70;;;;;;;;;;5090595;28;20112;-51
2024/01/07 05:14:22;;;;;;;7.25;4.30;;;;;;;;;;5090550;28;20386;-46
2024/01/07 05:16:48;;;;;;;7.30;4.38;;;;;;;;;;5090562;28;20509;-50
2024/01/07 05:19:14;;;;;;;7.25;4.30;;;;;;;;;;5090564;28;20026;-44
2024/01/07 05:21:40;;;;;;;7.50;4.50;;;;;;;;;;5090537;28;20052;-46
2024/01/07 05:24:06;;;;;;;7.60;4.50;;;;;;;;;;5090502;28;20028;-49
2024/01/07 05:26:39;;;;;;;8.35;4.88;;;;;;;;;;5072073;28;20082;-44
2024/01/07 05:29:05;;;;;;;9.90;6.10;;;;;;;;;;5090705;28;20389;-47
2024/01/07 05:31:31;;;;;;;8.15;4.85;;;;;;;;;;5090092;28;20500;-50
2024/01/07 05:33:58;;;;;;;9.02;5.60;;;;;;;;;;5090451;28;20048;-45
2024/01/07 05:36:24;;;;;;;21.30;15.82;;;;;;;;;;5090398;28;20047;-48
2024/01/07 05:38:49;;;;;;;7.32;4.40;;;;;;;;;;5090216;28;20020;-48
2024/01/07 05:41:15;;;;;;;10.38;5.40;;;;;;;;;;5089923;28;20099;-46
2024/01/07 05:43:41;;;;;;;8.52;5.70;;;;;;;;;;5090199;28;20028;-46
2024/01/07 05:46:07;;;;;;;7.55;4.47;;;;;;;;;;5071980;28;20187;-47
2024/01/07 05:48:44;;;;;;;7.30;4.40;;;;;;;;;;5090020;28;20103;-47
2024/01/07 05:51:10;;;;;;;7.53;4.45;;;;;;;;;;5089636;28;20032;-46
2024/01/07 05:53:36;;;;;;;7.60;4.53;;;;;;;;;;5090054;28;20397;-49
2024/01/07 05:56:02;;;;;;;7.82;4.60;;;;;;;;;;5090078;28;20024;-47
2024/01/07 05:58:28;;;;;;;11.05;6.63;;;;;;;;;;5090231;28;20043;-54
2024/01/07 06:00:54;;;;;;;8.10;4.80;;;;;;;;;;5089859;28;20020;-50
2024/01/07 06:03:20;;;;;;;9.65;5.45;;;;;;;;;;5089829;28;20566;-47
2024/01/07 06:05:46;;;;;;;9.10;5.35;;;;;;;;;;5090142;28;20028;-49
2024/01/07 06:08:13;;;;;;;7.35;4.43;;;;;;;;;;5090166;28;20681;-45
2024/01/07 06:10:39;;;;;;;7.70;5.57;;;;;;;;;;5090009;28;20028;-48
2024/01/07 06:13:05;;;;;;;7.57;4.45;;;;;;;;;;5090472;28;20116;-45
2024/01/07 06:15:31;;;;;;;8.10;4.50;;;;;;;;;;5090314;28;20080;-47
2024/01/07 06:17:57;;;;;;;8.35;4.90;;;;;;;;;;5090009;28;20023;-45
2024/01/07 06:20:23;;;;;;;8.75;5.03;;;;;;;;;;5090197;28;20722;-49
2024/01/07 06:22:50;;;;;;;7.28;4.35;;;;;;;;;;5089735;28;20024;-49
2024/01/07 06:25:16;;;;;;;7.55;4.47;;;;;;;;;;5092189;28;20028;-49
2024/01/07 06:27:42;;;;;;;7.03;4.20;;;;;;;;;;5093683;28;20073;-46
2024/01/07 06:30:08;;;;;;;7.25;4.28;;;;;;;;;;5093231;28;20032;-51
2024/01/07 06:32:35;;;;;;;8.50;5.55;;;;;;;;;;5075171;28;20028;-49
2024/01/07 06:35:01;;;;;;;7.20;4.30;;;;;;;;;;5093387;28;20501;-49
2024/01/07 06:37:29;;;;;;;7.97;4.57;;;;;;;;;;5093277;28;20051;-45
2024/01/07 06:39:55;;;;;;;13.10;5.80;;;;;;;;;;5075359;28;20397;-45
2024/01/07 06:42:21;;;;;;;10.60;5.65;;;;;;;;;;5093198;28;20035;-45
2024/01/07 06:44:47;;;;;;;9.07;5.10;;;;;;;;;;5093255;28;20028;-47
2024/01/07 06:47:13;;;;;;;6.72;4.20;;;;;;;;;;5093276;28;20043;-47
2024/01/07 06:49:39;;;;;;;8.18;4.68;;;;;;;;;;5093172;28;20047;-48
2024/01/07 06:52:05;;;;;;;6.75;4.00;;;;;;;;;;5088030;22;20651;-59
2024/01/07 06:54:31;;;;;;;6.90;4.10;;;;;;;;;;5051198;28;20491;-57
2024/01/07 06:56:57;;;;;;;7.03;4.15;;;;;;;;;;5051581;28;20028;-57
2024/01/07 06:59:23;;;;;;;8.40;4.97;;;;;;;;;;5051304;28;20029;-58
2024/01/07 07:01:49;;;;;;;10.65;5.82;;;;;;;;;;5051209;28;20029;-58
2024/01/07 07:04:15;;;;;;;7.10;4.30;;;;;;;;;;5050030;28;20413;-53
2024/01/07 07:06:41;;;;;;;7.65;4.53;;;;;;;;;;5051087;28;20033;-58
2024/01/07 07:09:07;;;;;;;8.73;4.68;;;;;;;;;;5051320;28;20021;-55
2024/01/07 07:11:33;;;;;;;7.30;4.35;;;;;;;;;;5050831;28;20580;-55
2024/01/07 07:13:59;;;;;;;8.25;4.50;;;;;;;;;;5051649;28;20055;-58
2024/01/07 07:16:26;;;;;;;8.25;4.75;;;;;;;;;;5051737;28;20021;-54
2024/01/07 07:18:52;;;;;;;13.63;5.65;;;;;;;;;;5051149;28;20035;-53
2024/01/07 07:21:18;;;;;;;8.23;4.70;;;;;;;;;;5049753;28;20524;-54
2024/01/07 07:23:44;;;;;;;7.20;4.32;;;;;;;;;;5051335;28;20052;-55
2024/01/07 07:26:10;;;;;;;7.70;4.60;;;;;;;;;;5050041;28;20183;-56
2024/01/07 07:28:36;;;;;;;12.43;5.22;;;;;;;;;;5050973;28;20032;-55
2024/01/07 07:31:02;;;;;;;8.23;4.88;;;;;;;;;;5050340;28;20033;-54
2024/01/07 07:33:28;;;;;;;8.93;4.45;;;;;;;;;;5050927;28;20021;-60
2024/01/07 07:35:54;;;;;;;7.00;4.10;;;;;;;;;;5050242;28;20354;-58
2024/01/07 07:38:20;;;;;;;10.23;5.85;;;;;;;;;;5050530;28;20040;-56
2024/01/07 07:40:52;;;;;;;11.88;7.70;;;;;;;;;;5050473;28;20099;-56
2024/01/07 07:43:18;;;;;;;7.20;4.30;;;;;;;;;;5050590;28;20029;-57
2024/01/07 07:45:44;;;;;;;8.10;6.05;;;;;;;;;;5048725;28;20033;-58
2024/01/07 07:48:10;;;;;;;7.30;4.32;;;;;;;;;;5048089;28;20025;-56
2024/01/07 07:50:36;;;;;;;10.50;5.18;;;;;;;;;;5049709;28;20043;-56
2024/01/07 07:53:02;;;;;;;7.28;4.32;;;;;;;;;;5050142;28;20036;-57
2024/01/07 07:55:28;;;;;;;6.97;4.18;;;;;;;;;;5049964;28;20095;-58
2024/01/07 07:57:54;;;;;;;8.95;4.65;;;;;;;;;;5050115;28;20408;-58
2024/01/07 08:00:20;;;;;;;6.97;4.10;;;;;;;;;;5049805;28;20521;-57
2024/01/07 08:02:46;;;;;;;7.00;4.15;;;;;;;;;;5048102;28;20017;-58
2024/01/07 08:05:13;;;;;;;6.53;3.88;;;;;;;;;;5048342;28;20048;-57
2024/01/07 08:07:39;;;;;;;12.02;5.50;;;;;;;;;;5048391;28;20086;-58
2024/01/07 08:10:06;;;;;;;9.95;5.15;;;;;;;;;;5049631;28;20462;-59
2024/01/07 08:12:32;;;;;;;7.03;4.22;;;;;;;;;;5049265;28;20044;-58
2024/01/07 08:14:58;;;;;;;10.07;5.55;;;;;;;;;;5048481;28;20041;-59
2024/01/07 08:17:24;;;;;;;7.85;4.57;;;;;;;;;;5049508;28;20025;-56
2024/01/07 08:19:50;;;;;;;9.35;5.22;;;;;;;;;;5048416;28;20056;-54
2024/01/07 08:22:16;;;;;;;7.85;4.60;;;;;;;;;;5041828;28;20033;-55
2024/01/07 08:24:42;;;;;;;9.70;5.20;;;;;;;;;;5052395;28;20084;-58
2024/01/07 08:27:09;;;;;;;8.23;4.57;;;;;;;;;;5053014;28;20025;-57
2024/01/07 08:29:35;;;;;;;7.40;4.47;;;;;;;;;;5053912;28;20081;-57
2024/01/07 08:32:01;;;;;;;7.20;4.30;;;;;;;;;;5048578;28;20035;-55
2024/01/07 08:34:27;;;;;;;7.82;4.65;;;;;;;;;;5049079;28;20021;-58
2024/01/07 08:36:53;;;;;;;8.73;5.35;;;;;;;;;;5049371;28;20054;-57
2024/01/07 08:39:20;;;;;;;8.18;4.80;;;;;;;;;;5048444;28;20029;-57
2024/01/07 08:41:46;;;;;;;8.02;4.80;;;;;;;;;;5047714;28;20029;-58
2024/01/07 08:44:12;;;;;;;9.65;5.32;;;;;;;;;;5048865;28;20110;-57
2024/01/07 08:46:38;;;;;;;7.57;4.55;;;;;;;;;;5049179;28;20096;-57
2024/01/07 08:49:04;;;;;;;7.93;4.72;;;;;;;;;;5046635;28;20469;-56
2024/01/07 08:51:30;;;;;;;8.95;5.18;;;;;;;;;;5047961;28;20115;-56
2024/01/07 08:53:58;;;;;;;8.30;5.00;;;;;;;;;;5048673;28;20021;-57
2024/01/07 08:56:25;;;;;;;7.47;4.43;;;;;;;;;;5048865;28;20025;-59
2024/01/07 08:58:52;;;;;;;8.45;5.15;;;;;;;;;;5048823;28;20025;-55
2024/01/07 09:01:18;;;;;;;8.95;4.80;;;;;;;;;;5047135;28;20021;-53
2024/01/07 09:03:44;;;;;;;12.35;5.70;;;;;;;;;;5048715;28;20110;-56
2024/01/07 09:06:10;;;;;;;9.73;5.53;;;;;;;;;;5048542;28;20110;-57
2024/01/07 09:08:36;;;;;;;9.95;6.25;;;;;;;;;;5048486;28;20013;-56
2024/01/07 09:11:06;;;;;;;7.75;4.60;;;;;;;;;;5046843;28;20067;-57
2024/01/07 09:13:32;;;;;;;8.70;5.03;;;;;;;;;;5048534;28;20032;-47
2024/01/07 09:15:58;;;;;;;8.75;5.00;;;;;;;;;;5048465;28;20023;-46
2024/01/07 09:18:24;;;;;;;8.38;4.80;;;;;;;;;;5056747;28;20108;-48
2024/01/07 09:20:50;;;;;;;8.30;4.90;;;;;;;;;;5048000;28;20044;-48
2024/01/07 09:23:16;;;;;;;9.50;5.20;;;;;;;;;;5048249;28;20079;-48
2024/01/07 09:25:42;;;;;;;11.45;5.57;;;;;;;;;;5047167;28;20063;-51
2024/01/07 09:28:08;;;;;;;8.85;5.25;;;;;;;;;;5047156;28;20451;-47
2024/01/07 09:30:34;;;;;;;8.93;5.28;;;;;;;;;;5048119;28;20512;-49
2024/01/07 09:33:00;;;;;;;8.73;5.20;;;;;;;;;;5048203;28;20449;-50
2024/01/07 09:35:26;;;;;;;9.70;5.68;;;;;;;;;;5048096;28;20039;-53
2024/01/07 09:37:52;;;;;;;9.10;5.30;;;;;;;;;;5056244;28;20103;-50
2024/01/07 09:40:19;;;;;;;8.95;5.10;;;;;;;;;;5065974;28;20032;-50
2024/01/07 09:42:45;;;;;;;9.23;5.30;;;;;;;;;;5066756;28;20047;-51
2024/01/07 09:45:13;;;;;;;11.38;5.93;;;;;;;;;;5067213;28;20036;-52
2024/01/07 09:47:40;;;;;;;8.80;5.32;;;;;;;;;;5068545;28;20463;-49
2024/01/07 09:50:06;;;;;;;8.95;5.25;;;;;;;;;;5068592;28;20090;-51
2024/01/07 09:52:33;;;;;;;9.32;5.78;;;;;;;;;;5068114;28;20051;-49
2024/01/07 09:55:03;;;;;;;8.60;5.10;;;;;;;;;;5062320;28;20025;-49
2024/01/07 09:57:30;;;;;;;8.73;5.15;;;;;;;;;;5048444;28;20033;-56
2024/01/07 09:59:56;;;;;;;8.70;5.20;;;;;;;;;;5050259;28;20096;-53
2024/01/07 10:02:23;;;;;;;10.98;7.25;;;;;;;;;;5052348;28;20025;-53
2024/01/07 10:04:49;;;;;;;9.32;5.50;;;;;;;;;;5052255;28;20031;-52
2024/01/07 10:07:16;;;;;;;9.00;5.30;;;;;;;;;;5055357;28;20029;-54
2024/01/07 10:09:42;;;;;;;9.52;5.60;;;;;;;;;;5060578;28;20047;-50
2024/01/07 10:12:08;;;;;;;8.65;5.18;;;;;;;;;;5056904;28;20308;-52
2024/01/07 10:14:35;;;;;;;11.27;5.78;;;;;;;;;;5051943;28;20097;-51
2024/01/07 10:17:01;;;;;;;9.13;5.38;;;;;;;;;;5050742;28;20105;-51
2024/01/07 10:19:27;;;;;;;9.57;5.60;;;;;;;;;;5052210;28;20029;-53
2024/01/07 10:22:00;;;;;;;9.25;5.40;;;;;;;;;;5051724;28;20513;-52
2024/01/07 10:24:26;;;;;;;8.90;5.30;;;;;;;;;;5051996;28;20021;-53
2024/01/07 10:26:52;;;;;;;9.15;5.43;;;;;;;;;;5051835;28;20029;-50
2024/01/07 10:29:18;;;;;;;9.25;5.50;;;;;;;;;;5051870;28;20025;-52
2024/01/07 10:31:44;;;;;;;8.98;5.28;;;;;;;;;;5051145;28;20033;-51
2024/01/07 10:34:10;;;;;;;10.80;5.63;;;;;;;;;;5051692;28;20123;-50
2024/01/07 10:36:37;;;;;;;10.32;6.00;;;;;;;;;;5051043;28;20052;-55
2024/01/07 10:39:03;;;;;;;8.60;5.10;;;;;;;;;;5051626;28;20028;-51
2024/01/07 10:41:30;;;;;;;9.75;5.85;;;;;;;;;;5051240;28;20509;-53
2024/01/07 10:43:56;;;;;;;8.80;5.20;;;;;;;;;;5051620;28;20033;-52
2024/01/07 10:46:22;;;;;;;9.10;5.30;;;;;;;;;;5066796;28;20036;-52
2024/01/07 10:49:04;;;;;;;9.18;5.40;;;;;;;;;;5066709;28;20021;-51
2024/01/07 10:51:34;;;;;;;9.02;5.32;;;;;;;;;;5050882;28;20119;-49
2024/01/07 10:54:00;;;;;;;9.35;5.35;;;;;;;;;;5051350;28;20086;-52
2024/01/07 10:56:33;;;;;;;9.68;5.60;;;;;;;;;;5051418;28;20530;-53
2024/01/07 10:59:00;;;;;;;9.10;5.38;;;;;;;;;;5051592;28;20040;-51
2024/01/07 11:01:26;;;;;;;11.15;5.75;;;;;;;;;;5051000;28;20059;-53
2024/01/07 11:03:58;;;;;;;9.50;5.57;;;;;;;;;;5051348;28;20382;-53
2024/01/07 11:06:30;;;;;;;11.18;5.97;;;;;;;;;;5051372;28;20105;-54
2024/01/07 11:08:58;;;;;;;9.93;5.70;;;;;;;;;;5066481;28;20029;-55
2024/01/07 11:11:32;;;;;;;10.55;6.75;;;;;;;;;;5065329;28;20033;-47
2024/01/07 11:13:59;;;;;;;9.80;5.80;;;;;;;;;;5051950;28;20021;-53
2024/01/07 11:16:44;;;;;;;9.90;5.80;;;;;;;;;;5050980;28;20482;-51
2024/01/07 11:19:10;;;;;;;11.23;6.38;;;;;;;;;;5051640;28;20029;-49
2024/01/07 11:21:36;;;;;;;10.45;6.28;;;;;;;;;;5051021;28;20021;-51
2024/01/07 11:24:02;;;;;;;9.90;5.70;;;;;;;;;;5031493;28;20036;-49
2024/01/07 11:26:32;;;;;;;10.73;6.30;;;;;;;;;;5030865;28;20395;-49
2024/01/07 11:28:58;;;;;;;9.95;5.88;;;;;;;;;;5030828;28;20036;-50
2024/01/07 11:31:47;;;;;;;9.85;5.80;;;;;;;;;;5030810;28;20018;-53
2024/01/07 11:34:33;;;;;;;10.32;5.85;;;;;;;;;;5020030;28;20065;-52
2024/01/07 11:36:59;;;;;;;8.85;5.22;;;;;;;;;;5030531;28;20060;-56
2024/01/07 11:39:25;;;;;;;10.77;5.70;;;;;;;;;;5031110;28;20288;-55
2024/01/07 11:41:51;;;;;;;9.32;5.50;;;;;;;;;;5030412;28;20026;-50
2024/01/07 11:44:17;;;;;;;8.95;5.25;;;;;;;;;;5029039;28;20045;-51
2024/01/07 11:46:43;;;;;;;9.05;5.40;;;;;;;;;;5030324;28;20028;-53
2024/01/07 11:49:09;;;;;;;9.00;5.30;;;;;;;;;;5030431;28;20037;-55
2024/01/07 11:51:37;;;;;;;9.10;5.40;;;;;;;;;;5029814;28;20073;-54
2024/01/07 11:54:03;;;;;;;10.52;6.18;;;;;;;;;;5036631;28;20024;-51
2024/01/07 11:56:29;;;;;;;9.40;5.55;;;;;;;;;;5050207;28;20090;-52
2024/01/07 11:58:59;;;;;;;9.55;5.60;;;;;;;;;;5050142;28;20064;-55
2024/01/07 12:01:26;;;;;;;9.70;5.75;;;;;;;;;;5049986;28;20033;-52
2024/01/07 12:03:52;;;;;;;9.20;5.43;;;;;;;;;;5050286;28;20376;-53
2024/01/07 12:06:19;;;;;;;11.70;6.03;;;;;;;;;;5050284;28;20118;-52
2024/01/07 12:08:45;;;;;;;9.10;5.40;;;;;;;;;;5049850;28;20124;-53
2024/01/07 12:11:12;;;;;;;8.82;5.20;;;;;;;;;;5049128;28;20108;-52
2024/01/07 12:13:38;;;;;;;9.85;5.50;;;;;;;;;;5050109;28;20032;-49
2024/01/07 12:16:05;;;;;;;8.75;5.18;;;;;;;;;;5049830;28;20506;-54
2024/01/07 12:18:31;;;;;;;8.90;5.20;;;;;;;;;;5049767;28;20056;-52
2024/01/07 12:20:58;;;;;;;9.75;5.85;;;;;;;;;;5048070;28;20024;-50
2024/01/07 12:23:25;;;;;;;9.13;5.32;;;;;;;;;;5049793;28;20536;-49
2024/01/07 12:25:51;;;;;;;9.15;5.30;;;;;;;;;;5049757;28;20033;-53
2024/01/07 12:28:21;;;;;;;11.35;6.43;;;;;;;;;;5049764;28;20270;-48
2024/01/07 12:30:50;;;;;;;8.70;5.13;;;;;;;;;;5049602;28;20025;-52
2024/01/07 12:33:18;;;;;;;8.88;5.20;;;;;;;;;;5049685;28;20442;-53
2024/01/07 12:35:44;;;;;;;8.82;5.22;;;;;;;;;;5049721;28;20100;-50
2024/01/07 12:38:10;;;;;;;9.38;5.55;;;;;;;;;;5064693;28;20044;-49
2024/01/07 12:40:36;;;;;;;9.68;5.57;;;;;;;;;;5064585;28;20021;-51
2024/01/07 12:43:03;;;;;;;9.43;5.60;;;;;;;;;;5044043;28;20101;-51
2024/01/07 12:45:29;;;;;;;8.98;5.30;;;;;;;;;;5050937;28;20074;-52
2024/01/07 12:47:58;;;;;;;9.43;5.60;;;;;;;;;;5052678;28;20135;-52
2024/01/07 12:50:27;;;;;;;9.70;5.70;;;;;;;;;;5057105;28;20016;-53
2024/01/07 12:52:53;;;;;;;9.70;5.65;;;;;;;;;;5081018;22;20138;-51
2024/01/07 12:55:19;;;;;;;10.65;6.05;;;;;;;;;;5055203;28;20029;-52
2024/01/07 12:57:45;;;;;;;9.23;5.38;;;;;;;;;;5041342;28;20363;-50
2024/01/07 13:00:12;;;;;;;9.40;5.38;;;;;;;;;;5056625;28;20033;-48
2024/01/07 13:02:38;;;;;;;8.90;5.22;;;;;;;;;;5048175;28;20029;-55
2024/01/07 13:05:04;;;;;;;10.00;5.50;;;;;;;;;;5032636;28;20018;-46
2024/01/07 13:07:30;;;;;;;8.80;5.20;;;;;;;;;;5030345;28;20438;-46
2024/01/07 13:09:56;;;;;;;8.80;5.20;;;;;;;;;;5030599;28;20113;-47
2024/01/07 13:12:22;;;;;;;9.45;5.45;;;;;;;;;;5012514;28;20116;-50
2024/01/07 13:14:48;;;;;;;9.05;5.32;;;;;;;;;;5030535;28;20022;-47
2024/01/07 13:17:15;;;;;;;8.77;5.20;;;;;;;;;;5012667;28;20108;-49
2024/01/07 13:19:42;;;;;;;9.30;5.50;;;;;;;;;;5030202;28;20452;-51
2024/01/07 13:22:09;;;;;;;9.55;5.70;;;;;;;;;;5030632;28;20315;-47
2024/01/07 13:24:35;;;;;;;8.77;5.20;;;;;;;;;;5049653;28;20486;-47
2024/01/07 13:27:01;;;;;;;8.52;5.05;;;;;;;;;;5050465;28;20033;-46
2024/01/07 13:29:27;;;;;;;9.85;6.18;;;;;;;;;;5050385;28;20029;-53
2024/01/07 13:31:53;;;;;;;9.15;5.45;;;;;;;;;;5049815;28;20091;-48
2024/01/07 13:34:19;;;;;;;9.00;5.30;;;;;;;;;;5031825;28;20470;-48
2024/01/07 13:36:46;;;;;;;8.40;4.97;;;;;;;;;;5050295;28;20024;-50
2024/01/07 13:39:12;;;;;;;9.77;5.57;;;;;;;;;;5050114;28;20416;-47
2024/01/07 13:41:38;;;;;;;8.18;4.85;;;;;;;;;;5050124;28;20036;-48
2024/01/07 13:44:04;;;;;;;8.60;5.10;;;;;;;;;;5050018;28;20343;-49
2024/01/07 13:46:31;;;;;;;10.02;5.53;;;;;;;;;;5047785;28;20021;-50
2024/01/07 13:48:57;;;;;;;9.38;5.47;;;;;;;;;;5010698;28;20084;-48
2024/01/07 13:51:23;;;;;;;10.25;5.72;;;;;;;;;;5023078;28;20025;-48
2024/01/07 13:53:49;;;;;;;8.63;5.18;;;;;;;;;;5028583;28;20028;-49
2024/01/07 13:56:15;;;;;;;9.25;5.40;;;;;;;;;;5030112;28;20454;-51
2024/01/07 13:58:41;;;;;;;8.77;5.20;;;;;;;;;;5012325;28;20017;-48
2024/01/07 14:01:07;;;;;;;8.20;4.85;;;;;;;;;;5029673;28;20117;-50
2024/01/07 14:03:33;;;;;;;8.45;5.03;;;;;;;;;;5029651;28;20061;-45
2024/01/07 14:06:03;;;;;;;7.97;4.72;;;;;;;;;;5038058;28;20509;-47
2024/01/07 14:08:29;;;;;;;8.40;5.00;;;;;;;;;;5029597;28;20100;-47
2024/01/07 14:10:55;;;;;;;8.07;4.78;;;;;;;;;;5038032;28;20067;-46
2024/01/07 14:13:22;;;;;;;9.27;5.35;;;;;;;;;;5029274;28;20045;-49
2024/01/07 14:15:48;;;;;;;8.55;5.05;;;;;;;;;;5029547;28;20105;-48
2024/01/07 14:18:17;;;;;;;9.00;5.30;;;;;;;;;;5029355;28;20121;-50
2024/01/07 14:20:43;;;;;;;9.00;5.30;;;;;;;;;;5009824;28;20392;-49
2024/01/07 14:23:09;;;;;;;9.02;5.40;;;;;;;;;;5019980;28;20179;-48
2024/01/07 14:25:35;;;;;;;8.77;5.20;;;;;;;;;;5029329;28;20017;-48
2024/01/07 14:28:03;;;;;;;8.88;5.28;;;;;;;;;;5011679;28;20022;-49
2024/01/07 14:30:29;;;;;;;8.85;5.20;;;;;;;;;;5029087;28;20099;-48
2024/01/07 14:32:56;;;;;;;8.48;5.00;;;;;;;;;;5029128;28;20017;-46
2024/01/07 14:35:24;;;;;;;8.40;5.00;;;;;;;;;;5021474;28;20701;-50
2024/01/07 14:37:50;;;;;;;8.70;5.10;;;;;;;;;;5029218;28;20036;-49